Weather observations for the past three days for
Darlington, Darlington County Jetport Airport
Metric (Imperial)
Date Time (edt) Wind (kph) Vis. (km) Weather Sky Cond. Temperature (ºC) Relative Humidity Wind Chill (°C) Heat Index (°C) Pressure Precipitation (cm)
Air Dwpt 6 hour altimeter (cm) sea level (mb) 1 hr 3 hr 6 hr
Max. Min.
06 09:56 SW 22 G 31 0.00 Fair CLR 21.1 15 68% 76.23 1016.3
06 08:56 SW 19 0.00 Fair CLR 19.4 15.6 79% 76.23 1016.0
06 07:56 SW 17 0.00 Fair CLR 18.9 15 18.9 16.1 78% 76.17 1015.5
06 06:56 S 17 0.00 Fair CLR 16.7 13.9 84% 76.15 1015.1
06 05:56 SW 13 0.00 Fair CLR 17.2 13.9 81% 76.15 1015.3
06 04:56 SW 19 0.00 Fair CLR 17.2 13.3 78% 76.17 1015.6
06 03:56 SW 11 0.00 Fair CLR 16.7 13.3 80% 76.17 1015.6
06 02:56 S 9 0.00 Fair CLR 16.1 13.3 84% 76.2 1015.7
06 01:56 S 9 0.00 Fair CLR 17.8 12.8 23.9 17.8 73% 76.2 1015.8
06 00:56 S 19 0.00 Fair CLR 18.9 12.8 68% 76.25 1016.5
05 23:56 S 15 0.00 Fair CLR 18.9 12.8 68% 76.23 1016.3
05 22:56 S 19 0.00 Fair CLR 19.4 12.8 66% 76.28 1016.8
05 21:56 S 20 0.00 Fair CLR 20.6 12.8 61% 76.23 1016.3
05 20:56 S 20 0.00 Fair CLR 21.7 12.2 55% 76.17 1015.4
05 19:56 S 19 0.00 Fair CLR 23.3 10.6 28.3 23.3 45% 76.12 1014.9
05 18:56 S 17 0.00 A Few Clouds FEW075 26.1 9.4 35% 26 76.12 1014.7
05 17:56 S 13 0.00 Fair CLR 26.1 10 36% 26 76.12 1015.0
05 16:56 S 17 0.00 A Few Clouds FEW070 27.2 10 34% 27 76.15 1015.3
05 15:56 S 11 0.00 Partly Cloudy SCT065 26.7 10.6 37% 26 76.2 1015.8
05 14:56 S 11 G 30 0.00 A Few Clouds FEW065 26.7 11.1 38% 27 76.23 1016.2
05 13:56 S 24 0.00 A Few Clouds FEW060 26.7 11.1 26.7 13.9 38% 27 76.28 1016.8
05 12:56 S 15 G 28 0.00 A Few Clouds FEW055 25.6 11.7 42% 26 76.33 1017.5
05 11:56 SW 17 0.00 Fair CLR 25 11.7 43% 26 76.38 1018.2
05 10:56 S 19 0.00 Fair CLR 22.8 12.2 51% 76.38 1018.2
05 09:56 SW 20 0.00 Fair CLR 21.7 12.8 57% 76.38 1018.3
05 08:56 SW 17 0.00 Fair CLR 18.9 13.3 70% 76.38 1018.2
05 07:56 SW 7 0.00 Fair CLR 13.9 12.2 14.4 9.4 90% 76.35 1018.1
05 06:56 Calm 0.00 Fair CLR 10 10 100% 76.33 1017.7
05 05:56 S 6 0.00 Fair CLR 10 9.4 96% 76.3 1017.1
05 04:56 Calm 0.00 Fair CLR 11.7 10 89% 76.28 1016.8
05 03:56 SW 6 0.00 Fair CLR 12.8 10 83% 76.23 1016.3
05 02:56 S 7 0.00 Fair CLR 13.9 10 78% 76.23 1016.3
05 01:56 S 9 0.00 Fair CLR 14.4 10 22.8 14.4 75% 76.25 1016.6
05 00:56 S 9 0.00 Fair CLR 15.6 10 70% 76.3 1017.1
04 23:56 S 13 0.00 Fair CLR 16.7 10 65% 76.28 1016.9
04 22:56 S 13 0.00 Fair CLR 17.8 10.6 63% 76.3 1017.1
04 21:56 S 19 0.00 Fair CLR 20 10 53% 76.25 1016.6
04 20:56 S 11 0.00 Fair CLR 19.4 7.8 47% 76.2 1015.8
04 19:56 S 17 0.00 Fair CLR 22.8 7.2 27.2 22.8 37% 76.15 1015.2
04 18:56 S 20 0.00 Fair CLR 25 6.7 31% 25 76.12 1014.7
04 17:56 S 22 0.00 Fair CLR 26.1 6.7 29% 26 76.12 1014.7
04 16:56 S 24 G 30 0.00 Fair CLR 26.7 5.6 26% 26 76.12 1014.7
04 15:56 SW 20 G 30 0.00 Fair CLR 26.7 5.6 26% 26 76.17 1015.4
04 14:56 Calm 0.00 Fair CLR 25.6 4.4 26% 25 76.23 1016.1
04 13:56 SW 15 0.00 Fair CLR 25.6 5.6 25.6 11.7 28% 26 76.28 1016.8
04 12:56 W 17 0.00 Fair CLR 24.4 6.7 32% 25 76.3 1017.3
04 11:56 NW 13 0.00 Fair CLR 23.3 6.7 34% 76.35 1018.0
04 10:56 W 13 0.00 Fair CLR 21.1 8.3 44% 76.4 1018.6
04 09:56 W 11 0.00 Fair CLR 18.9 9.4 54% 76.38 1018.5
04 08:56 SW 15 0.00 Fair CLR 15 10.6 75% 76.38 1018.3
04 07:56 SW 9 0.00 Fair CLR 11.7 10.6 12.2 8.3 93% 76.38 1018.2
04 06:56 Calm 0.00 Fair CLR 8.9 8.9 100% 76.38 1018.2
04 05:56 SW 6 0.00 Fair CLR 8.9 8.9 100% 76.38 1018.2
04 04:56 S 6 0.00 Fair CLR 8.9 8.9 100% 76.35 1018.0
04 03:56 SW 9 0.00 Fair CLR 10.6 9.4 92% 76.35 1018.1
04 02:56 S 9 0.00 Fair CLR 11.1 9.4 89% 76.35 1018.2
04 01:56 S 9 0.00 Fair CLR 11.7 9.4 18.3 11.1 86% 76.4 1018.6
04 00:56 SW 11 0.00 Fair CLR 12.8 9.4 80% 76.4 1018.6
03 23:56 S 13 0.00 Fair CLR 13.3 8.9 75% 76.4 1018.6
03 22:56 SW 6 0.00 Fair CLR 11.1 8.3 83% 76.38 1018.5
03 21:56 Calm 0.00 Fair CLR 12.8 8.9 77% 76.35 1018.1
03 20:56 Calm 0.00 Fair CLR 13.9 8.3 69% 76.3 1017.4
03 19:56 SW 7 0.00 Fair CLR 18.9 5.6 21.7 18.9 42% 76.28 1016.9
03 18:56 W 7 0.00 Fair CLR 20.6 3.9 33% 76.28 1016.8
03 17:56 W 13 0.00 Fair CLR 21.1 3.3 31% 76.28 1017.0
03 16:56 W 13 0.00 Fair CLR 21.1 3.9 32% 76.28 1016.9
03 15:56 NW 13 G 28 0.00 A Few Clouds FEW070 20.6 3.9 33% 76.33 1017.7
03 14:56 W 13 0.00 Fair CLR 20 4.4 36% 76.4 1018.8
03 13:56 W 13 G 28 0.00 A Few Clouds FEW060 18.9 4.4 18.9 8.9 39% 76.48 1019.5
03 12:56 Calm 0.00 Fair CLR 17.2 3.3 40% 76.53 1020.3
03 11:56 NW 15 0.00 Fair CLR 16.1 3.9 44% 76.58 1021.2
03 10:56 N 17 G 30 0.00 Fair CLR 15 3.3 46% 76.58 1021.0
Date Time (edt) Wind (kph) Vis. (km) Weather Sky Cond. Air Dwpt Max. Min. Relative Humidity Wind Chill (°C) Heat Index (°C) altimeter (cm) sea level (mb) 1 hr 3 hr 6 hr
6 hour
Temperature (ºC) Pressure Precipitation (cm)